<?xml version="1.0" encoding="UTF-8" standalone="no" ?>
<gpx xmlns="http://www.topografix.com/GPX/1/1" xmlns:xsi="http://www.w3.org/2001/XMLSchema-instance" xsi:schemaLocation="http://www.topografix.com/GPX/1/1 http://www.topografix.com/GPX/1/1/gpx.xsd" version="1.1" creator="VisuGPX - https://www.visugpx.com">
  <metadata>
    <name>Tour de Banne </name>
  </metadata>
  <trk>
    <name><![CDATA[Randonnée du 20/05/2023 à 14:37]]></name>
    <trkseg>
      <trkpt lat="44.36674" lon="4.15506">
        <ele>329</ele>
        <time>2023-05-20T14:37:10+02:00</time>
      </trkpt>
      <trkpt lat="44.36675" lon="4.15527">
        <ele>325</ele>
        <time>2023-05-20T14:37:30+02:00</time>
      </trkpt>
      <trkpt lat="44.36661" lon="4.15533">
        <ele>326</ele>
        <time>2023-05-20T14:38:57+02:00</time>
      </trkpt>
      <trkpt lat="44.36645" lon="4.15531">
        <ele>326</ele>
        <time>2023-05-20T14:39:44+02:00</time>
      </trkpt>
      <trkpt lat="44.36632" lon="4.15533">
        <ele>326</ele>
        <time>2023-05-20T14:40:47+02:00</time>
      </trkpt>
      <trkpt lat="44.36617" lon="4.15533">
        <ele>327</ele>
        <time>2023-05-20T14:41:01+02:00</time>
      </trkpt>
      <trkpt lat="44.36603" lon="4.15541">
        <ele>328</ele>
        <time>2023-05-20T14:41:17+02:00</time>
      </trkpt>
      <trkpt lat="44.36588" lon="4.15549">
        <ele>329</ele>
        <time>2023-05-20T14:41:33+02:00</time>
      </trkpt>
      <trkpt lat="44.36575" lon="4.15565">
        <ele>329</ele>
        <time>2023-05-20T14:41:48+02:00</time>
      </trkpt>
      <trkpt lat="44.36564" lon="4.1558">
        <ele>330</ele>
        <time>2023-05-20T14:42:02+02:00</time>
      </trkpt>
      <trkpt lat="44.36552" lon="4.15595">
        <ele>330</ele>
        <time>2023-05-20T14:42:17+02:00</time>
      </trkpt>
      <trkpt lat="44.36539" lon="4.15609">
        <ele>330</ele>
        <time>2023-05-20T14:42:31+02:00</time>
      </trkpt>
      <trkpt lat="44.36527" lon="4.15617">
        <ele>331</ele>
        <time>2023-05-20T14:43:13+02:00</time>
      </trkpt>
      <trkpt lat="44.3654" lon="4.15624">
        <ele>330</ele>
        <time>2023-05-20T14:44:29+02:00</time>
      </trkpt>
      <trkpt lat="44.36546" lon="4.15641">
        <ele>330</ele>
        <time>2023-05-20T14:44:50+02:00</time>
      </trkpt>
      <trkpt lat="44.36551" lon="4.15662">
        <ele>331</ele>
        <time>2023-05-20T14:45:21+02:00</time>
      </trkpt>
      <trkpt lat="44.36546" lon="4.1564">
        <ele>331</ele>
        <time>2023-05-20T14:45:55+02:00</time>
      </trkpt>
      <trkpt lat="44.36541" lon="4.15621">
        <ele>331</ele>
        <time>2023-05-20T14:46:06+02:00</time>
      </trkpt>
      <trkpt lat="44.36534" lon="4.15599">
        <ele>331</ele>
        <time>2023-05-20T14:46:19+02:00</time>
      </trkpt>
      <trkpt lat="44.36521" lon="4.15587">
        <ele>331</ele>
        <time>2023-05-20T14:46:32+02:00</time>
      </trkpt>
      <trkpt lat="44.36504" lon="4.15582">
        <ele>331</ele>
        <time>2023-05-20T14:46:45+02:00</time>
      </trkpt>
      <trkpt lat="44.36489" lon="4.15575">
        <ele>329</ele>
        <time>2023-05-20T14:47:01+02:00</time>
      </trkpt>
      <trkpt lat="44.36474" lon="4.15576">
        <ele>328</ele>
        <time>2023-05-20T14:47:15+02:00</time>
      </trkpt>
      <trkpt lat="44.36461" lon="4.15581">
        <ele>330</ele>
        <time>2023-05-20T14:47:25+02:00</time>
      </trkpt>
      <trkpt lat="44.36444" lon="4.15582">
        <ele>330</ele>
        <time>2023-05-20T14:47:40+02:00</time>
      </trkpt>
      <trkpt lat="44.36431" lon="4.15591">
        <ele>330</ele>
        <time>2023-05-20T14:47:54+02:00</time>
      </trkpt>
      <trkpt lat="44.36417" lon="4.15596">
        <ele>330</ele>
        <time>2023-05-20T14:48:09+02:00</time>
      </trkpt>
      <trkpt lat="44.36401" lon="4.15601">
        <ele>328</ele>
        <time>2023-05-20T14:48:24+02:00</time>
      </trkpt>
      <trkpt lat="44.36385" lon="4.15603">
        <ele>328</ele>
        <time>2023-05-20T14:48:38+02:00</time>
      </trkpt>
      <trkpt lat="44.36371" lon="4.15601">
        <ele>327</ele>
        <time>2023-05-20T14:48:49+02:00</time>
      </trkpt>
      <trkpt lat="44.36356" lon="4.15603">
        <ele>328</ele>
        <time>2023-05-20T14:49:02+02:00</time>
      </trkpt>
      <trkpt lat="44.36342" lon="4.15605">
        <ele>328</ele>
        <time>2023-05-20T14:49:15+02:00</time>
      </trkpt>
      <trkpt lat="44.36327" lon="4.15596">
        <ele>329</ele>
        <time>2023-05-20T14:49:29+02:00</time>
      </trkpt>
      <trkpt lat="44.36316" lon="4.15582">
        <ele>330</ele>
        <time>2023-05-20T14:49:44+02:00</time>
      </trkpt>
      <trkpt lat="44.36303" lon="4.1557">
        <ele>332</ele>
        <time>2023-05-20T14:50:00+02:00</time>
      </trkpt>
      <trkpt lat="44.3629" lon="4.15561">
        <ele>332</ele>
        <time>2023-05-20T14:50:13+02:00</time>
      </trkpt>
      <trkpt lat="44.36278" lon="4.15552">
        <ele>333</ele>
        <time>2023-05-20T14:50:27+02:00</time>
      </trkpt>
      <trkpt lat="44.36263" lon="4.15548">
        <ele>334</ele>
        <time>2023-05-20T14:50:42+02:00</time>
      </trkpt>
      <trkpt lat="44.36249" lon="4.15538">
        <ele>335</ele>
        <time>2023-05-20T14:50:58+02:00</time>
      </trkpt>
      <trkpt lat="44.36235" lon="4.15528">
        <ele>337</ele>
        <time>2023-05-20T14:51:12+02:00</time>
      </trkpt>
      <trkpt lat="44.36224" lon="4.15518">
        <ele>338</ele>
        <time>2023-05-20T14:51:26+02:00</time>
      </trkpt>
      <trkpt lat="44.36213" lon="4.155">
        <ele>339</ele>
        <time>2023-05-20T14:51:42+02:00</time>
      </trkpt>
      <trkpt lat="44.36209" lon="4.1548">
        <ele>339</ele>
        <time>2023-05-20T14:51:56+02:00</time>
      </trkpt>
      <trkpt lat="44.36204" lon="4.15463">
        <ele>339</ele>
        <time>2023-05-20T14:52:08+02:00</time>
      </trkpt>
      <trkpt lat="44.36194" lon="4.15449">
        <ele>340</ele>
        <time>2023-05-20T14:52:19+02:00</time>
      </trkpt>
      <trkpt lat="44.3618" lon="4.15444">
        <ele>341</ele>
        <time>2023-05-20T14:52:35+02:00</time>
      </trkpt>
      <trkpt lat="44.36167" lon="4.1544">
        <ele>341</ele>
        <time>2023-05-20T14:52:48+02:00</time>
      </trkpt>
      <trkpt lat="44.36153" lon="4.1544">
        <ele>341</ele>
        <time>2023-05-20T14:53:03+02:00</time>
      </trkpt>
      <trkpt lat="44.36138" lon="4.15436">
        <ele>340</ele>
        <time>2023-05-20T14:53:24+02:00</time>
      </trkpt>
      <trkpt lat="44.36124" lon="4.15433">
        <ele>340</ele>
        <time>2023-05-20T14:53:35+02:00</time>
      </trkpt>
      <trkpt lat="44.36111" lon="4.15431">
        <ele>341</ele>
        <time>2023-05-20T14:53:46+02:00</time>
      </trkpt>
      <trkpt lat="44.36094" lon="4.15428">
        <ele>340</ele>
        <time>2023-05-20T14:53:59+02:00</time>
      </trkpt>
      <trkpt lat="44.36079" lon="4.15422">
        <ele>340</ele>
        <time>2023-05-20T14:54:15+02:00</time>
      </trkpt>
      <trkpt lat="44.36066" lon="4.15413">
        <ele>339</ele>
        <time>2023-05-20T14:54:29+02:00</time>
      </trkpt>
      <trkpt lat="44.36052" lon="4.15397">
        <ele>339</ele>
        <time>2023-05-20T14:54:50+02:00</time>
      </trkpt>
      <trkpt lat="44.36038" lon="4.15386">
        <ele>338</ele>
        <time>2023-05-20T14:55:03+02:00</time>
      </trkpt>
      <trkpt lat="44.36028" lon="4.15373">
        <ele>338</ele>
        <time>2023-05-20T14:55:17+02:00</time>
      </trkpt>
      <trkpt lat="44.36019" lon="4.15358">
        <ele>338</ele>
        <time>2023-05-20T14:55:29+02:00</time>
      </trkpt>
      <trkpt lat="44.36008" lon="4.15344">
        <ele>338</ele>
        <time>2023-05-20T14:55:43+02:00</time>
      </trkpt>
      <trkpt lat="44.35999" lon="4.15329">
        <ele>338</ele>
        <time>2023-05-20T14:55:57+02:00</time>
      </trkpt>
      <trkpt lat="44.35988" lon="4.15312">
        <ele>337</ele>
        <time>2023-05-20T14:56:14+02:00</time>
      </trkpt>
      <trkpt lat="44.35979" lon="4.15294">
        <ele>337</ele>
        <time>2023-05-20T14:56:46+02:00</time>
      </trkpt>
      <trkpt lat="44.35968" lon="4.15284">
        <ele>337</ele>
        <time>2023-05-20T14:56:57+02:00</time>
      </trkpt>
      <trkpt lat="44.35953" lon="4.15273">
        <ele>337</ele>
        <time>2023-05-20T14:57:11+02:00</time>
      </trkpt>
      <trkpt lat="44.35939" lon="4.15267">
        <ele>338</ele>
        <time>2023-05-20T14:57:25+02:00</time>
      </trkpt>
      <trkpt lat="44.35926" lon="4.15259">
        <ele>339</ele>
        <time>2023-05-20T14:57:39+02:00</time>
      </trkpt>
      <trkpt lat="44.35914" lon="4.15248">
        <ele>340</ele>
        <time>2023-05-20T14:57:55+02:00</time>
      </trkpt>
      <trkpt lat="44.359" lon="4.15239">
        <ele>341</ele>
        <time>2023-05-20T14:58:09+02:00</time>
      </trkpt>
      <trkpt lat="44.35888" lon="4.15226">
        <ele>341</ele>
        <time>2023-05-20T14:58:23+02:00</time>
      </trkpt>
      <trkpt lat="44.35874" lon="4.15217">
        <ele>343</ele>
        <time>2023-05-20T14:58:37+02:00</time>
      </trkpt>
      <trkpt lat="44.35859" lon="4.15208">
        <ele>342</ele>
        <time>2023-05-20T14:58:50+02:00</time>
      </trkpt>
      <trkpt lat="44.35847" lon="4.15199">
        <ele>344</ele>
        <time>2023-05-20T14:59:04+02:00</time>
      </trkpt>
      <trkpt lat="44.35833" lon="4.15193">
        <ele>345</ele>
        <time>2023-05-20T14:59:17+02:00</time>
      </trkpt>
      <trkpt lat="44.3582" lon="4.15181">
        <ele>346</ele>
        <time>2023-05-20T14:59:32+02:00</time>
      </trkpt>
      <trkpt lat="44.35805" lon="4.15168">
        <ele>345</ele>
        <time>2023-05-20T14:59:46+02:00</time>
      </trkpt>
      <trkpt lat="44.35792" lon="4.15162">
        <ele>343</ele>
        <time>2023-05-20T14:59:57+02:00</time>
      </trkpt>
      <trkpt lat="44.35777" lon="4.15165">
        <ele>345</ele>
        <time>2023-05-20T15:00:08+02:00</time>
      </trkpt>
      <trkpt lat="44.35763" lon="4.15169">
        <ele>344</ele>
        <time>2023-05-20T15:00:19+02:00</time>
      </trkpt>
      <trkpt lat="44.3575" lon="4.15177">
        <ele>344</ele>
        <time>2023-05-20T15:00:31+02:00</time>
      </trkpt>
      <trkpt lat="44.35736" lon="4.15183">
        <ele>348</ele>
        <time>2023-05-20T15:00:45+02:00</time>
      </trkpt>
      <trkpt lat="44.35723" lon="4.15188">
        <ele>344</ele>
        <time>2023-05-20T15:00:58+02:00</time>
      </trkpt>
      <trkpt lat="44.35709" lon="4.15194">
        <ele>351</ele>
        <time>2023-05-20T15:01:11+02:00</time>
      </trkpt>
      <trkpt lat="44.35695" lon="4.15195">
        <ele>348</ele>
        <time>2023-05-20T15:01:24+02:00</time>
      </trkpt>
      <trkpt lat="44.3568" lon="4.15202">
        <ele>351</ele>
        <time>2023-05-20T15:01:37+02:00</time>
      </trkpt>
      <trkpt lat="44.35665" lon="4.15204">
        <ele>349</ele>
        <time>2023-05-20T15:01:51+02:00</time>
      </trkpt>
      <trkpt lat="44.35649" lon="4.15204">
        <ele>352</ele>
        <time>2023-05-20T15:02:05+02:00</time>
      </trkpt>
      <trkpt lat="44.35634" lon="4.15205">
        <ele>350</ele>
        <time>2023-05-20T15:02:18+02:00</time>
      </trkpt>
      <trkpt lat="44.35619" lon="4.15203">
        <ele>351</ele>
        <time>2023-05-20T15:02:32+02:00</time>
      </trkpt>
      <trkpt lat="44.35603" lon="4.15198">
        <ele>352</ele>
        <time>2023-05-20T15:02:47+02:00</time>
      </trkpt>
      <trkpt lat="44.35587" lon="4.15199">
        <ele>353</ele>
        <time>2023-05-20T15:03:01+02:00</time>
      </trkpt>
      <trkpt lat="44.35572" lon="4.15199">
        <ele>354</ele>
        <time>2023-05-20T15:03:14+02:00</time>
      </trkpt>
      <trkpt lat="44.35559" lon="4.15192">
        <ele>352</ele>
        <time>2023-05-20T15:03:27+02:00</time>
      </trkpt>
      <trkpt lat="44.35547" lon="4.15181">
        <ele>355</ele>
        <time>2023-05-20T15:03:40+02:00</time>
      </trkpt>
      <trkpt lat="44.35533" lon="4.15171">
        <ele>354</ele>
        <time>2023-05-20T15:03:56+02:00</time>
      </trkpt>
      <trkpt lat="44.35518" lon="4.15164">
        <ele>354</ele>
        <time>2023-05-20T15:04:09+02:00</time>
      </trkpt>
      <trkpt lat="44.35504" lon="4.15157">
        <ele>351</ele>
        <time>2023-05-20T15:04:21+02:00</time>
      </trkpt>
      <trkpt lat="44.35489" lon="4.15154">
        <ele>353</ele>
        <time>2023-05-20T15:04:35+02:00</time>
      </trkpt>
      <trkpt lat="44.35475" lon="4.15153">
        <ele>348</ele>
        <time>2023-05-20T15:04:49+02:00</time>
      </trkpt>
      <trkpt lat="44.3546" lon="4.15158">
        <ele>349</ele>
        <time>2023-05-20T15:05:02+02:00</time>
      </trkpt>
      <trkpt lat="44.35444" lon="4.15161">
        <ele>341</ele>
        <time>2023-05-20T15:05:19+02:00</time>
      </trkpt>
      <trkpt lat="44.35431" lon="4.15164">
        <ele>347</ele>
        <time>2023-05-20T15:05:32+02:00</time>
      </trkpt>
      <trkpt lat="44.3542" lon="4.15177">
        <ele>341</ele>
        <time>2023-05-20T15:05:45+02:00</time>
      </trkpt>
      <trkpt lat="44.35432" lon="4.15167">
        <ele>342</ele>
        <time>2023-05-20T15:06:09+02:00</time>
      </trkpt>
      <trkpt lat="44.35447" lon="4.15162">
        <ele>341</ele>
        <time>2023-05-20T15:06:22+02:00</time>
      </trkpt>
      <trkpt lat="44.35463" lon="4.15161">
        <ele>342</ele>
        <time>2023-05-20T15:06:36+02:00</time>
      </trkpt>
      <trkpt lat="44.35478" lon="4.15157">
        <ele>342</ele>
        <time>2023-05-20T15:06:48+02:00</time>
      </trkpt>
      <trkpt lat="44.35491" lon="4.15153">
        <ele>343</ele>
        <time>2023-05-20T15:07:03+02:00</time>
      </trkpt>
      <trkpt lat="44.35497" lon="4.15133">
        <ele>342</ele>
        <time>2023-05-20T15:07:23+02:00</time>
      </trkpt>
      <trkpt lat="44.35504" lon="4.15114">
        <ele>343</ele>
        <time>2023-05-20T15:07:36+02:00</time>
      </trkpt>
      <trkpt lat="44.3551" lon="4.15096">
        <ele>343</ele>
        <time>2023-05-20T15:07:52+02:00</time>
      </trkpt>
      <trkpt lat="44.35516" lon="4.15078">
        <ele>343</ele>
        <time>2023-05-20T15:08:28+02:00</time>
      </trkpt>
      <trkpt lat="44.35524" lon="4.15063">
        <ele>344</ele>
        <time>2023-05-20T15:08:39+02:00</time>
      </trkpt>
      <trkpt lat="44.35533" lon="4.15047">
        <ele>344</ele>
        <time>2023-05-20T15:08:52+02:00</time>
      </trkpt>
      <trkpt lat="44.35542" lon="4.15028">
        <ele>346</ele>
        <time>2023-05-20T15:09:08+02:00</time>
      </trkpt>
      <trkpt lat="44.35549" lon="4.15011">
        <ele>347</ele>
        <time>2023-05-20T15:09:21+02:00</time>
      </trkpt>
      <trkpt lat="44.35554" lon="4.1499">
        <ele>348</ele>
        <time>2023-05-20T15:09:36+02:00</time>
      </trkpt>
      <trkpt lat="44.3556" lon="4.14972">
        <ele>349</ele>
        <time>2023-05-20T15:09:47+02:00</time>
      </trkpt>
      <trkpt lat="44.35567" lon="4.14953">
        <ele>350</ele>
        <time>2023-05-20T15:10:10+02:00</time>
      </trkpt>
      <trkpt lat="44.35574" lon="4.14937">
        <ele>351</ele>
        <time>2023-05-20T15:10:24+02:00</time>
      </trkpt>
      <trkpt lat="44.35583" lon="4.14919">
        <ele>351</ele>
        <time>2023-05-20T15:10:37+02:00</time>
      </trkpt>
      <trkpt lat="44.35591" lon="4.14901">
        <ele>353</ele>
        <time>2023-05-20T15:10:53+02:00</time>
      </trkpt>
      <trkpt lat="44.356" lon="4.14883">
        <ele>354</ele>
        <time>2023-05-20T15:11:10+02:00</time>
      </trkpt>
      <trkpt lat="44.35609" lon="4.14865">
        <ele>356</ele>
        <time>2023-05-20T15:11:27+02:00</time>
      </trkpt>
      <trkpt lat="44.35616" lon="4.14846">
        <ele>359</ele>
        <time>2023-05-20T15:11:47+02:00</time>
      </trkpt>
      <trkpt lat="44.35628" lon="4.14831">
        <ele>361</ele>
        <time>2023-05-20T15:12:04+02:00</time>
      </trkpt>
      <trkpt lat="44.35634" lon="4.14815">
        <ele>362</ele>
        <time>2023-05-20T15:12:40+02:00</time>
      </trkpt>
      <trkpt lat="44.35646" lon="4.14799">
        <ele>363</ele>
        <time>2023-05-20T15:13:03+02:00</time>
      </trkpt>
      <trkpt lat="44.35655" lon="4.14784">
        <ele>363</ele>
        <time>2023-05-20T15:13:17+02:00</time>
      </trkpt>
      <trkpt lat="44.35658" lon="4.14763">
        <ele>363</ele>
        <time>2023-05-20T15:13:31+02:00</time>
      </trkpt>
      <trkpt lat="44.35662" lon="4.14744">
        <ele>363</ele>
        <time>2023-05-20T15:13:53+02:00</time>
      </trkpt>
      <trkpt lat="44.3567" lon="4.14726">
        <ele>364</ele>
        <time>2023-05-20T15:14:09+02:00</time>
      </trkpt>
      <trkpt lat="44.35675" lon="4.14708">
        <ele>365</ele>
        <time>2023-05-20T15:14:30+02:00</time>
      </trkpt>
      <trkpt lat="44.35683" lon="4.14692">
        <ele>366</ele>
        <time>2023-05-20T15:14:52+02:00</time>
      </trkpt>
      <trkpt lat="44.3569" lon="4.14674">
        <ele>365</ele>
        <time>2023-05-20T15:15:06+02:00</time>
      </trkpt>
      <trkpt lat="44.35697" lon="4.14655">
        <ele>366</ele>
        <time>2023-05-20T15:15:20+02:00</time>
      </trkpt>
      <trkpt lat="44.35703" lon="4.14635">
        <ele>367</ele>
        <time>2023-05-20T15:15:39+02:00</time>
      </trkpt>
      <trkpt lat="44.35708" lon="4.14617">
        <ele>368</ele>
        <time>2023-05-20T15:15:57+02:00</time>
      </trkpt>
      <trkpt lat="44.35714" lon="4.14598">
        <ele>368</ele>
        <time>2023-05-20T15:16:15+02:00</time>
      </trkpt>
      <trkpt lat="44.35719" lon="4.14578">
        <ele>370</ele>
        <time>2023-05-20T15:16:37+02:00</time>
      </trkpt>
      <trkpt lat="44.35725" lon="4.14557">
        <ele>369</ele>
        <time>2023-05-20T15:17:08+02:00</time>
      </trkpt>
      <trkpt lat="44.35728" lon="4.14536">
        <ele>369</ele>
        <time>2023-05-20T15:17:27+02:00</time>
      </trkpt>
      <trkpt lat="44.35724" lon="4.14517">
        <ele>367</ele>
        <time>2023-05-20T15:17:41+02:00</time>
      </trkpt>
      <trkpt lat="44.35725" lon="4.14498">
        <ele>362</ele>
        <time>2023-05-20T15:18:16+02:00</time>
      </trkpt>
      <trkpt lat="44.35727" lon="4.14479">
        <ele>365</ele>
        <time>2023-05-20T15:18:30+02:00</time>
      </trkpt>
      <trkpt lat="44.35727" lon="4.14459">
        <ele>367</ele>
        <time>2023-05-20T15:18:51+02:00</time>
      </trkpt>
      <trkpt lat="44.35729" lon="4.1444">
        <ele>373</ele>
        <time>2023-05-20T15:19:45+02:00</time>
      </trkpt>
      <trkpt lat="44.3573" lon="4.1442">
        <ele>376</ele>
        <time>2023-05-20T15:20:05+02:00</time>
      </trkpt>
      <trkpt lat="44.35734" lon="4.14399">
        <ele>380</ele>
        <time>2023-05-20T15:20:26+02:00</time>
      </trkpt>
      <trkpt lat="44.35733" lon="4.14379">
        <ele>382</ele>
        <time>2023-05-20T15:20:48+02:00</time>
      </trkpt>
      <trkpt lat="44.35728" lon="4.1436">
        <ele>383</ele>
        <time>2023-05-20T15:21:51+02:00</time>
      </trkpt>
      <trkpt lat="44.35736" lon="4.14342">
        <ele>385</ele>
        <time>2023-05-20T15:22:39+02:00</time>
      </trkpt>
      <trkpt lat="44.35742" lon="4.14324">
        <ele>387</ele>
        <time>2023-05-20T15:23:08+02:00</time>
      </trkpt>
      <trkpt lat="44.35751" lon="4.14308">
        <ele>392</ele>
        <time>2023-05-20T15:23:33+02:00</time>
      </trkpt>
      <trkpt lat="44.35747" lon="4.14288">
        <ele>388</ele>
        <time>2023-05-20T15:25:01+02:00</time>
      </trkpt>
      <trkpt lat="44.35759" lon="4.14276">
        <ele>398</ele>
        <time>2023-05-20T15:27:16+02:00</time>
      </trkpt>
      <trkpt lat="44.35772" lon="4.14266">
        <ele>402</ele>
        <time>2023-05-20T15:28:23+02:00</time>
      </trkpt>
      <trkpt lat="44.35783" lon="4.14254">
        <ele>403</ele>
        <time>2023-05-20T15:28:50+02:00</time>
      </trkpt>
      <trkpt lat="44.35797" lon="4.14247">
        <ele>403</ele>
        <time>2023-05-20T15:29:01+02:00</time>
      </trkpt>
      <trkpt lat="44.35803" lon="4.14228">
        <ele>404</ele>
        <time>2023-05-20T15:29:13+02:00</time>
      </trkpt>
      <trkpt lat="44.35801" lon="4.14206">
        <ele>404</ele>
        <time>2023-05-20T15:29:33+02:00</time>
      </trkpt>
      <trkpt lat="44.35808" lon="4.14188">
        <ele>406</ele>
        <time>2023-05-20T15:29:54+02:00</time>
      </trkpt>
      <trkpt lat="44.35813" lon="4.1417">
        <ele>407</ele>
        <time>2023-05-20T15:30:16+02:00</time>
      </trkpt>
      <trkpt lat="44.35819" lon="4.14151">
        <ele>409</ele>
        <time>2023-05-20T15:30:35+02:00</time>
      </trkpt>
      <trkpt lat="44.35826" lon="4.14134">
        <ele>409</ele>
        <time>2023-05-20T15:30:45+02:00</time>
      </trkpt>
      <trkpt lat="44.35831" lon="4.14114">
        <ele>411</ele>
        <time>2023-05-20T15:31:01+02:00</time>
      </trkpt>
      <trkpt lat="44.35835" lon="4.14094">
        <ele>412</ele>
        <time>2023-05-20T15:31:16+02:00</time>
      </trkpt>
      <trkpt lat="44.3584" lon="4.14075">
        <ele>412</ele>
        <time>2023-05-20T15:31:32+02:00</time>
      </trkpt>
      <trkpt lat="44.35853" lon="4.14063">
        <ele>415</ele>
        <time>2023-05-20T15:31:54+02:00</time>
      </trkpt>
      <trkpt lat="44.35867" lon="4.14059">
        <ele>418</ele>
        <time>2023-05-20T15:32:14+02:00</time>
      </trkpt>
      <trkpt lat="44.35876" lon="4.14042">
        <ele>421</ele>
        <time>2023-05-20T15:32:35+02:00</time>
      </trkpt>
      <trkpt lat="44.35891" lon="4.14047">
        <ele>425</ele>
        <time>2023-05-20T15:33:03+02:00</time>
      </trkpt>
      <trkpt lat="44.35905" lon="4.14055">
        <ele>428</ele>
        <time>2023-05-20T15:33:25+02:00</time>
      </trkpt>
      <trkpt lat="44.35906" lon="4.14077">
        <ele>430</ele>
        <time>2023-05-20T15:33:48+02:00</time>
      </trkpt>
      <trkpt lat="44.35907" lon="4.14099">
        <ele>432</ele>
        <time>2023-05-20T15:34:06+02:00</time>
      </trkpt>
      <trkpt lat="44.35906" lon="4.14118">
        <ele>434</ele>
        <time>2023-05-20T15:34:22+02:00</time>
      </trkpt>
      <trkpt lat="44.35909" lon="4.14139">
        <ele>436</ele>
        <time>2023-05-20T15:34:38+02:00</time>
      </trkpt>
      <trkpt lat="44.35911" lon="4.14161">
        <ele>438</ele>
        <time>2023-05-20T15:34:54+02:00</time>
      </trkpt>
      <trkpt lat="44.35916" lon="4.14142">
        <ele>441</ele>
        <time>2023-05-20T15:35:45+02:00</time>
      </trkpt>
      <trkpt lat="44.35919" lon="4.14122">
        <ele>440</ele>
        <time>2023-05-20T15:39:58+02:00</time>
      </trkpt>
      <trkpt lat="44.35926" lon="4.141">
        <ele>439</ele>
        <time>2023-05-20T15:40:12+02:00</time>
      </trkpt>
      <trkpt lat="44.35931" lon="4.14079">
        <ele>439</ele>
        <time>2023-05-20T15:40:27+02:00</time>
      </trkpt>
      <trkpt lat="44.35933" lon="4.14057">
        <ele>439</ele>
        <time>2023-05-20T15:40:41+02:00</time>
      </trkpt>
      <trkpt lat="44.35939" lon="4.14035">
        <ele>439</ele>
        <time>2023-05-20T15:40:57+02:00</time>
      </trkpt>
      <trkpt lat="44.35946" lon="4.14017">
        <ele>439</ele>
        <time>2023-05-20T15:41:10+02:00</time>
      </trkpt>
      <trkpt lat="44.35955" lon="4.14">
        <ele>439</ele>
        <time>2023-05-20T15:41:24+02:00</time>
      </trkpt>
      <trkpt lat="44.35964" lon="4.13983">
        <ele>440</ele>
        <time>2023-05-20T15:41:38+02:00</time>
      </trkpt>
      <trkpt lat="44.35975" lon="4.13965">
        <ele>440</ele>
        <time>2023-05-20T15:41:52+02:00</time>
      </trkpt>
      <trkpt lat="44.3598" lon="4.13947">
        <ele>440</ele>
        <time>2023-05-20T15:42:05+02:00</time>
      </trkpt>
      <trkpt lat="44.35987" lon="4.13928">
        <ele>440</ele>
        <time>2023-05-20T15:42:18+02:00</time>
      </trkpt>
      <trkpt lat="44.35993" lon="4.13909">
        <ele>440</ele>
        <time>2023-05-20T15:42:31+02:00</time>
      </trkpt>
      <trkpt lat="44.36001" lon="4.13893">
        <ele>441</ele>
        <time>2023-05-20T15:42:46+02:00</time>
      </trkpt>
      <trkpt lat="44.36006" lon="4.13875">
        <ele>441</ele>
        <time>2023-05-20T15:42:59+02:00</time>
      </trkpt>
      <trkpt lat="44.36008" lon="4.13851">
        <ele>441</ele>
        <time>2023-05-20T15:43:13+02:00</time>
      </trkpt>
      <trkpt lat="44.36001" lon="4.13832">
        <ele>441</ele>
        <time>2023-05-20T15:43:24+02:00</time>
      </trkpt>
      <trkpt lat="44.35993" lon="4.13815">
        <ele>441</ele>
        <time>2023-05-20T15:43:36+02:00</time>
      </trkpt>
      <trkpt lat="44.36006" lon="4.1382">
        <ele>443</ele>
        <time>2023-05-20T15:44:03+02:00</time>
      </trkpt>
      <trkpt lat="44.3602" lon="4.13823">
        <ele>443</ele>
        <time>2023-05-20T15:44:17+02:00</time>
      </trkpt>
      <trkpt lat="44.36033" lon="4.13828">
        <ele>444</ele>
        <time>2023-05-20T15:44:34+02:00</time>
      </trkpt>
      <trkpt lat="44.36048" lon="4.13828">
        <ele>445</ele>
        <time>2023-05-20T15:45:29+02:00</time>
      </trkpt>
      <trkpt lat="44.36064" lon="4.13827">
        <ele>446</ele>
        <time>2023-05-20T15:46:07+02:00</time>
      </trkpt>
      <trkpt lat="44.3608" lon="4.13836">
        <ele>446</ele>
        <time>2023-05-20T15:46:21+02:00</time>
      </trkpt>
      <trkpt lat="44.36093" lon="4.13846">
        <ele>447</ele>
        <time>2023-05-20T15:48:54+02:00</time>
      </trkpt>
      <trkpt lat="44.36103" lon="4.13863">
        <ele>447</ele>
        <time>2023-05-20T15:49:08+02:00</time>
      </trkpt>
      <trkpt lat="44.36117" lon="4.13869">
        <ele>448</ele>
        <time>2023-05-20T15:49:28+02:00</time>
      </trkpt>
      <trkpt lat="44.36131" lon="4.13863">
        <ele>448</ele>
        <time>2023-05-20T15:49:48+02:00</time>
      </trkpt>
      <trkpt lat="44.36144" lon="4.13854">
        <ele>449</ele>
        <time>2023-05-20T15:50:21+02:00</time>
      </trkpt>
      <trkpt lat="44.36156" lon="4.13844">
        <ele>451</ele>
        <time>2023-05-20T15:50:37+02:00</time>
      </trkpt>
      <trkpt lat="44.3617" lon="4.13837">
        <ele>451</ele>
        <time>2023-05-20T15:50:50+02:00</time>
      </trkpt>
      <trkpt lat="44.36185" lon="4.13829">
        <ele>451</ele>
        <time>2023-05-20T15:51:06+02:00</time>
      </trkpt>
      <trkpt lat="44.36197" lon="4.13818">
        <ele>451</ele>
        <time>2023-05-20T15:51:24+02:00</time>
      </trkpt>
      <trkpt lat="44.36208" lon="4.13805">
        <ele>450</ele>
        <time>2023-05-20T15:51:41+02:00</time>
      </trkpt>
      <trkpt lat="44.36218" lon="4.1379">
        <ele>448</ele>
        <time>2023-05-20T15:51:54+02:00</time>
      </trkpt>
      <trkpt lat="44.36227" lon="4.13774">
        <ele>448</ele>
        <time>2023-05-20T15:52:06+02:00</time>
      </trkpt>
      <trkpt lat="44.36239" lon="4.13761">
        <ele>446</ele>
        <time>2023-05-20T15:52:19+02:00</time>
      </trkpt>
      <trkpt lat="44.36249" lon="4.13744">
        <ele>447</ele>
        <time>2023-05-20T15:52:32+02:00</time>
      </trkpt>
      <trkpt lat="44.36258" lon="4.13724">
        <ele>449</ele>
        <time>2023-05-20T15:52:54+02:00</time>
      </trkpt>
      <trkpt lat="44.36268" lon="4.1371">
        <ele>449</ele>
        <time>2023-05-20T15:53:09+02:00</time>
      </trkpt>
      <trkpt lat="44.36282" lon="4.13701">
        <ele>449</ele>
        <time>2023-05-20T15:53:25+02:00</time>
      </trkpt>
      <trkpt lat="44.36297" lon="4.13694">
        <ele>448</ele>
        <time>2023-05-20T15:53:42+02:00</time>
      </trkpt>
      <trkpt lat="44.3631" lon="4.13682">
        <ele>445</ele>
        <time>2023-05-20T15:54:02+02:00</time>
      </trkpt>
      <trkpt lat="44.36322" lon="4.13675">
        <ele>443</ele>
        <time>2023-05-20T15:54:13+02:00</time>
      </trkpt>
      <trkpt lat="44.36336" lon="4.13671">
        <ele>442</ele>
        <time>2023-05-20T15:54:24+02:00</time>
      </trkpt>
      <trkpt lat="44.36351" lon="4.13674">
        <ele>440</ele>
        <time>2023-05-20T15:54:40+02:00</time>
      </trkpt>
      <trkpt lat="44.36366" lon="4.13675">
        <ele>440</ele>
        <time>2023-05-20T15:54:53+02:00</time>
      </trkpt>
      <trkpt lat="44.36381" lon="4.13676">
        <ele>439</ele>
        <time>2023-05-20T15:55:09+02:00</time>
      </trkpt>
      <trkpt lat="44.36394" lon="4.1367">
        <ele>440</ele>
        <time>2023-05-20T15:55:20+02:00</time>
      </trkpt>
      <trkpt lat="44.36408" lon="4.13668">
        <ele>439</ele>
        <time>2023-05-20T15:55:36+02:00</time>
      </trkpt>
      <trkpt lat="44.36423" lon="4.13675">
        <ele>440</ele>
        <time>2023-05-20T15:55:55+02:00</time>
      </trkpt>
      <trkpt lat="44.36437" lon="4.13676">
        <ele>440</ele>
        <time>2023-05-20T15:56:12+02:00</time>
      </trkpt>
      <trkpt lat="44.36449" lon="4.1369">
        <ele>441</ele>
        <time>2023-05-20T15:56:29+02:00</time>
      </trkpt>
      <trkpt lat="44.36464" lon="4.13691">
        <ele>441</ele>
        <time>2023-05-20T15:56:45+02:00</time>
      </trkpt>
      <trkpt lat="44.36478" lon="4.13689">
        <ele>441</ele>
        <time>2023-05-20T15:56:59+02:00</time>
      </trkpt>
      <trkpt lat="44.36492" lon="4.13689">
        <ele>442</ele>
        <time>2023-05-20T15:57:13+02:00</time>
      </trkpt>
      <trkpt lat="44.36506" lon="4.13682">
        <ele>443</ele>
        <time>2023-05-20T15:57:30+02:00</time>
      </trkpt>
      <trkpt lat="44.36516" lon="4.13669">
        <ele>444</ele>
        <time>2023-05-20T15:57:44+02:00</time>
      </trkpt>
      <trkpt lat="44.36523" lon="4.13651">
        <ele>446</ele>
        <time>2023-05-20T15:57:57+02:00</time>
      </trkpt>
      <trkpt lat="44.36532" lon="4.13632">
        <ele>447</ele>
        <time>2023-05-20T15:58:13+02:00</time>
      </trkpt>
      <trkpt lat="44.36546" lon="4.13633">
        <ele>447</ele>
        <time>2023-05-20T15:58:29+02:00</time>
      </trkpt>
      <trkpt lat="44.36559" lon="4.13639">
        <ele>448</ele>
        <time>2023-05-20T15:58:42+02:00</time>
      </trkpt>
      <trkpt lat="44.36575" lon="4.13645">
        <ele>448</ele>
        <time>2023-05-20T15:58:57+02:00</time>
      </trkpt>
      <trkpt lat="44.36587" lon="4.13657">
        <ele>448</ele>
        <time>2023-05-20T15:59:18+02:00</time>
      </trkpt>
      <trkpt lat="44.36597" lon="4.13672">
        <ele>447</ele>
        <time>2023-05-20T15:59:32+02:00</time>
      </trkpt>
      <trkpt lat="44.36609" lon="4.13682">
        <ele>447</ele>
        <time>2023-05-20T15:59:50+02:00</time>
      </trkpt>
      <trkpt lat="44.36623" lon="4.13689">
        <ele>447</ele>
        <time>2023-05-20T16:00:06+02:00</time>
      </trkpt>
      <trkpt lat="44.36636" lon="4.13701">
        <ele>446</ele>
        <time>2023-05-20T16:00:23+02:00</time>
      </trkpt>
      <trkpt lat="44.36646" lon="4.13715">
        <ele>447</ele>
        <time>2023-05-20T16:00:36+02:00</time>
      </trkpt>
      <trkpt lat="44.36657" lon="4.13729">
        <ele>446</ele>
        <time>2023-05-20T16:00:52+02:00</time>
      </trkpt>
      <trkpt lat="44.36669" lon="4.13737">
        <ele>447</ele>
        <time>2023-05-20T16:01:17+02:00</time>
      </trkpt>
      <trkpt lat="44.36681" lon="4.13749">
        <ele>447</ele>
        <time>2023-05-20T16:01:44+02:00</time>
      </trkpt>
      <trkpt lat="44.36695" lon="4.13754">
        <ele>445</ele>
        <time>2023-05-20T16:01:59+02:00</time>
      </trkpt>
      <trkpt lat="44.3671" lon="4.13757">
        <ele>444</ele>
        <time>2023-05-20T16:02:15+02:00</time>
      </trkpt>
      <trkpt lat="44.36725" lon="4.13762">
        <ele>443</ele>
        <time>2023-05-20T16:02:28+02:00</time>
      </trkpt>
      <trkpt lat="44.36738" lon="4.13764">
        <ele>441</ele>
        <time>2023-05-20T16:02:46+02:00</time>
      </trkpt>
      <trkpt lat="44.36754" lon="4.13761">
        <ele>439</ele>
        <time>2023-05-20T16:03:09+02:00</time>
      </trkpt>
      <trkpt lat="44.36768" lon="4.13758">
        <ele>439</ele>
        <time>2023-05-20T16:03:20+02:00</time>
      </trkpt>
      <trkpt lat="44.36783" lon="4.1376">
        <ele>438</ele>
        <time>2023-05-20T16:03:34+02:00</time>
      </trkpt>
      <trkpt lat="44.3679" lon="4.13779">
        <ele>438</ele>
        <time>2023-05-20T16:05:07+02:00</time>
      </trkpt>
      <trkpt lat="44.36783" lon="4.13797">
        <ele>437</ele>
        <time>2023-05-20T16:05:25+02:00</time>
      </trkpt>
      <trkpt lat="44.36785" lon="4.13818">
        <ele>436</ele>
        <time>2023-05-20T16:05:50+02:00</time>
      </trkpt>
      <trkpt lat="44.36782" lon="4.13839">
        <ele>433</ele>
        <time>2023-05-20T16:06:14+02:00</time>
      </trkpt>
      <trkpt lat="44.36769" lon="4.13851">
        <ele>431</ele>
        <time>2023-05-20T16:07:34+02:00</time>
      </trkpt>
      <trkpt lat="44.36757" lon="4.13866">
        <ele>430</ele>
        <time>2023-05-20T16:07:48+02:00</time>
      </trkpt>
      <trkpt lat="44.36748" lon="4.1388">
        <ele>430</ele>
        <time>2023-05-20T16:08:01+02:00</time>
      </trkpt>
      <trkpt lat="44.36743" lon="4.13899">
        <ele>430</ele>
        <time>2023-05-20T16:08:46+02:00</time>
      </trkpt>
      <trkpt lat="44.36738" lon="4.13917">
        <ele>430</ele>
        <time>2023-05-20T16:09:01+02:00</time>
      </trkpt>
      <trkpt lat="44.36736" lon="4.13937">
        <ele>432</ele>
        <time>2023-05-20T16:10:17+02:00</time>
      </trkpt>
      <trkpt lat="44.36732" lon="4.13956">
        <ele>433</ele>
        <time>2023-05-20T16:10:43+02:00</time>
      </trkpt>
      <trkpt lat="44.36729" lon="4.13977">
        <ele>434</ele>
        <time>2023-05-20T16:11:01+02:00</time>
      </trkpt>
      <trkpt lat="44.36726" lon="4.13997">
        <ele>434</ele>
        <time>2023-05-20T16:11:17+02:00</time>
      </trkpt>
      <trkpt lat="44.36726" lon="4.14018">
        <ele>433</ele>
        <time>2023-05-20T16:11:34+02:00</time>
      </trkpt>
      <trkpt lat="44.36727" lon="4.14038">
        <ele>433</ele>
        <time>2023-05-20T16:11:49+02:00</time>
      </trkpt>
      <trkpt lat="44.36727" lon="4.14058">
        <ele>431</ele>
        <time>2023-05-20T16:12:03+02:00</time>
      </trkpt>
      <trkpt lat="44.36726" lon="4.14079">
        <ele>431</ele>
        <time>2023-05-20T16:12:21+02:00</time>
      </trkpt>
      <trkpt lat="44.36719" lon="4.14096">
        <ele>430</ele>
        <time>2023-05-20T16:12:35+02:00</time>
      </trkpt>
      <trkpt lat="44.36717" lon="4.14119">
        <ele>428</ele>
        <time>2023-05-20T16:12:51+02:00</time>
      </trkpt>
      <trkpt lat="44.36719" lon="4.14141">
        <ele>426</ele>
        <time>2023-05-20T16:13:07+02:00</time>
      </trkpt>
      <trkpt lat="44.36714" lon="4.14159">
        <ele>424</ele>
        <time>2023-05-20T16:13:36+02:00</time>
      </trkpt>
      <trkpt lat="44.36707" lon="4.1418">
        <ele>423</ele>
        <time>2023-05-20T16:13:53+02:00</time>
      </trkpt>
      <trkpt lat="44.367" lon="4.14197">
        <ele>421</ele>
        <time>2023-05-20T16:14:10+02:00</time>
      </trkpt>
      <trkpt lat="44.36699" lon="4.14218">
        <ele>419</ele>
        <time>2023-05-20T16:14:27+02:00</time>
      </trkpt>
      <trkpt lat="44.36697" lon="4.14238">
        <ele>416</ele>
        <time>2023-05-20T16:14:40+02:00</time>
      </trkpt>
      <trkpt lat="44.36694" lon="4.14256">
        <ele>415</ele>
        <time>2023-05-20T16:14:56+02:00</time>
      </trkpt>
      <trkpt lat="44.36695" lon="4.14276">
        <ele>413</ele>
        <time>2023-05-20T16:15:09+02:00</time>
      </trkpt>
      <trkpt lat="44.367" lon="4.14294">
        <ele>411</ele>
        <time>2023-05-20T16:15:28+02:00</time>
      </trkpt>
      <trkpt lat="44.36705" lon="4.14314">
        <ele>409</ele>
        <time>2023-05-20T16:15:45+02:00</time>
      </trkpt>
      <trkpt lat="44.36711" lon="4.14333">
        <ele>406</ele>
        <time>2023-05-20T16:16:01+02:00</time>
      </trkpt>
      <trkpt lat="44.36717" lon="4.1435">
        <ele>405</ele>
        <time>2023-05-20T16:16:15+02:00</time>
      </trkpt>
      <trkpt lat="44.3672" lon="4.14369">
        <ele>403</ele>
        <time>2023-05-20T16:16:30+02:00</time>
      </trkpt>
      <trkpt lat="44.36722" lon="4.14389">
        <ele>401</ele>
        <time>2023-05-20T16:17:09+02:00</time>
      </trkpt>
      <trkpt lat="44.36731" lon="4.14404">
        <ele>401</ele>
        <time>2023-05-20T16:17:33+02:00</time>
      </trkpt>
      <trkpt lat="44.36739" lon="4.14422">
        <ele>399</ele>
        <time>2023-05-20T16:17:50+02:00</time>
      </trkpt>
      <trkpt lat="44.36732" lon="4.1444">
        <ele>397</ele>
        <time>2023-05-20T16:18:05+02:00</time>
      </trkpt>
      <trkpt lat="44.3673" lon="4.14461">
        <ele>394</ele>
        <time>2023-05-20T16:18:23+02:00</time>
      </trkpt>
      <trkpt lat="44.36729" lon="4.14482">
        <ele>391</ele>
        <time>2023-05-20T16:18:37+02:00</time>
      </trkpt>
      <trkpt lat="44.36732" lon="4.14502">
        <ele>390</ele>
        <time>2023-05-20T16:18:56+02:00</time>
      </trkpt>
      <trkpt lat="44.36732" lon="4.14523">
        <ele>388</ele>
        <time>2023-05-20T16:19:09+02:00</time>
      </trkpt>
      <trkpt lat="44.36728" lon="4.14542">
        <ele>386</ele>
        <time>2023-05-20T16:19:27+02:00</time>
      </trkpt>
      <trkpt lat="44.36744" lon="4.14535">
        <ele>381</ele>
        <time>2023-05-20T16:19:58+02:00</time>
      </trkpt>
      <trkpt lat="44.36752" lon="4.1452">
        <ele>381</ele>
        <time>2023-05-20T16:20:09+02:00</time>
      </trkpt>
      <trkpt lat="44.36749" lon="4.14544">
        <ele>377</ele>
        <time>2023-05-20T16:20:43+02:00</time>
      </trkpt>
      <trkpt lat="44.36745" lon="4.14564">
        <ele>376</ele>
        <time>2023-05-20T16:20:57+02:00</time>
      </trkpt>
      <trkpt lat="44.36739" lon="4.14583">
        <ele>373</ele>
        <time>2023-05-20T16:21:17+02:00</time>
      </trkpt>
      <trkpt lat="44.36752" lon="4.14588">
        <ele>368</ele>
        <time>2023-05-20T16:21:49+02:00</time>
      </trkpt>
      <trkpt lat="44.36744" lon="4.14608">
        <ele>362</ele>
        <time>2023-05-20T16:22:19+02:00</time>
      </trkpt>
      <trkpt lat="44.36729" lon="4.14614">
        <ele>358</ele>
        <time>2023-05-20T16:22:47+02:00</time>
      </trkpt>
      <trkpt lat="44.36714" lon="4.14616">
        <ele>356</ele>
        <time>2023-05-20T16:23:00+02:00</time>
      </trkpt>
      <trkpt lat="44.36728" lon="4.14621">
        <ele>353</ele>
        <time>2023-05-20T16:23:28+02:00</time>
      </trkpt>
      <trkpt lat="44.3672" lon="4.14637">
        <ele>349</ele>
        <time>2023-05-20T16:23:47+02:00</time>
      </trkpt>
      <trkpt lat="44.36705" lon="4.14652">
        <ele>346</ele>
        <time>2023-05-20T16:24:06+02:00</time>
      </trkpt>
      <trkpt lat="44.36692" lon="4.14661">
        <ele>345</ele>
        <time>2023-05-20T16:24:16+02:00</time>
      </trkpt>
      <trkpt lat="44.36704" lon="4.14673">
        <ele>343</ele>
        <time>2023-05-20T16:24:29+02:00</time>
      </trkpt>
      <trkpt lat="44.36717" lon="4.1468">
        <ele>343</ele>
        <time>2023-05-20T16:24:37+02:00</time>
      </trkpt>
      <trkpt lat="44.36726" lon="4.14697">
        <ele>341</ele>
        <time>2023-05-20T16:24:52+02:00</time>
      </trkpt>
      <trkpt lat="44.36723" lon="4.14719">
        <ele>339</ele>
        <time>2023-05-20T16:25:04+02:00</time>
      </trkpt>
      <trkpt lat="44.36723" lon="4.1474">
        <ele>334</ele>
        <time>2023-05-20T16:25:27+02:00</time>
      </trkpt>
      <trkpt lat="44.36732" lon="4.14759">
        <ele>331</ele>
        <time>2023-05-20T16:25:42+02:00</time>
      </trkpt>
      <trkpt lat="44.36729" lon="4.1478">
        <ele>327</ele>
        <time>2023-05-20T16:26:13+02:00</time>
      </trkpt>
      <trkpt lat="44.3673" lon="4.14801">
        <ele>322</ele>
        <time>2023-05-20T16:26:51+02:00</time>
      </trkpt>
      <trkpt lat="44.36722" lon="4.14818">
        <ele>320</ele>
        <time>2023-05-20T16:27:05+02:00</time>
      </trkpt>
      <trkpt lat="44.36719" lon="4.14837">
        <ele>319</ele>
        <time>2023-05-20T16:27:18+02:00</time>
      </trkpt>
      <trkpt lat="44.36709" lon="4.14824">
        <ele>315</ele>
        <time>2023-05-20T16:27:51+02:00</time>
      </trkpt>
      <trkpt lat="44.36694" lon="4.14818">
        <ele>313</ele>
        <time>2023-05-20T16:28:05+02:00</time>
      </trkpt>
      <trkpt lat="44.3668" lon="4.14823">
        <ele>309</ele>
        <time>2023-05-20T16:28:23+02:00</time>
      </trkpt>
      <trkpt lat="44.36666" lon="4.14822">
        <ele>307</ele>
        <time>2023-05-20T16:28:37+02:00</time>
      </trkpt>
      <trkpt lat="44.36654" lon="4.14834">
        <ele>307</ele>
        <time>2023-05-20T16:29:08+02:00</time>
      </trkpt>
      <trkpt lat="44.36661" lon="4.14853">
        <ele>307</ele>
        <time>2023-05-20T16:29:23+02:00</time>
      </trkpt>
      <trkpt lat="44.36665" lon="4.14871">
        <ele>308</ele>
        <time>2023-05-20T16:29:38+02:00</time>
      </trkpt>
      <trkpt lat="44.36673" lon="4.14887">
        <ele>309</ele>
        <time>2023-05-20T16:29:51+02:00</time>
      </trkpt>
      <trkpt lat="44.36668" lon="4.14908">
        <ele>312</ele>
        <time>2023-05-20T16:30:12+02:00</time>
      </trkpt>
      <trkpt lat="44.36667" lon="4.14927">
        <ele>313</ele>
        <time>2023-05-20T16:30:27+02:00</time>
      </trkpt>
      <trkpt lat="44.36673" lon="4.14948">
        <ele>317</ele>
        <time>2023-05-20T16:30:43+02:00</time>
      </trkpt>
      <trkpt lat="44.36682" lon="4.14963">
        <ele>319</ele>
        <time>2023-05-20T16:30:55+02:00</time>
      </trkpt>
      <trkpt lat="44.36695" lon="4.14975">
        <ele>320</ele>
        <time>2023-05-20T16:31:14+02:00</time>
      </trkpt>
      <trkpt lat="44.36695" lon="4.14996">
        <ele>320</ele>
        <time>2023-05-20T16:33:45+02:00</time>
      </trkpt>
      <trkpt lat="44.36698" lon="4.15016">
        <ele>320</ele>
        <time>2023-05-20T16:34:00+02:00</time>
      </trkpt>
      <trkpt lat="44.36696" lon="4.15038">
        <ele>321</ele>
        <time>2023-05-20T16:34:29+02:00</time>
      </trkpt>
      <trkpt lat="44.36699" lon="4.15058">
        <ele>320</ele>
        <time>2023-05-20T16:37:36+02:00</time>
      </trkpt>
      <trkpt lat="44.36699" lon="4.1508">
        <ele>320</ele>
        <time>2023-05-20T16:37:46+02:00</time>
      </trkpt>
      <trkpt lat="44.36697" lon="4.15102">
        <ele>320</ele>
        <time>2023-05-20T16:38:00+02:00</time>
      </trkpt>
      <trkpt lat="44.36699" lon="4.15124">
        <ele>320</ele>
        <time>2023-05-20T16:38:17+02:00</time>
      </trkpt>
      <trkpt lat="44.36703" lon="4.15145">
        <ele>320</ele>
        <time>2023-05-20T16:38:31+02:00</time>
      </trkpt>
      <trkpt lat="44.367" lon="4.15166">
        <ele>320</ele>
        <time>2023-05-20T16:38:44+02:00</time>
      </trkpt>
      <trkpt lat="44.36701" lon="4.15188">
        <ele>320</ele>
        <time>2023-05-20T16:38:58+02:00</time>
      </trkpt>
      <trkpt lat="44.36691" lon="4.15203">
        <ele>320</ele>
        <time>2023-05-20T16:39:11+02:00</time>
      </trkpt>
      <trkpt lat="44.36686" lon="4.15223">
        <ele>321</ele>
        <time>2023-05-20T16:39:24+02:00</time>
      </trkpt>
      <trkpt lat="44.36692" lon="4.15244">
        <ele>321</ele>
        <time>2023-05-20T16:39:39+02:00</time>
      </trkpt>
      <trkpt lat="44.36697" lon="4.15265">
        <ele>321</ele>
        <time>2023-05-20T16:39:53+02:00</time>
      </trkpt>
      <trkpt lat="44.36707" lon="4.15282">
        <ele>320</ele>
        <time>2023-05-20T16:40:49+02:00</time>
      </trkpt>
      <trkpt lat="44.36717" lon="4.15299">
        <ele>319</ele>
        <time>2023-05-20T16:41:01+02:00</time>
      </trkpt>
      <trkpt lat="44.36726" lon="4.15317">
        <ele>318</ele>
        <time>2023-05-20T16:41:17+02:00</time>
      </trkpt>
      <trkpt lat="44.36731" lon="4.15335">
        <ele>318</ele>
        <time>2023-05-20T16:42:03+02:00</time>
      </trkpt>
      <trkpt lat="44.36739" lon="4.15354">
        <ele>318</ele>
        <time>2023-05-20T16:42:18+02:00</time>
      </trkpt>
      <trkpt lat="44.36746" lon="4.15373">
        <ele>317</ele>
        <time>2023-05-20T16:42:31+02:00</time>
      </trkpt>
      <trkpt lat="44.36756" lon="4.15392">
        <ele>316</ele>
        <time>2023-05-20T16:42:45+02:00</time>
      </trkpt>
      <trkpt lat="44.36764" lon="4.15412">
        <ele>315</ele>
        <time>2023-05-20T16:42:59+02:00</time>
      </trkpt>
      <trkpt lat="44.36773" lon="4.15429">
        <ele>315</ele>
        <time>2023-05-20T16:43:15+02:00</time>
      </trkpt>
      <trkpt lat="44.36776" lon="4.15452">
        <ele>314</ele>
        <time>2023-05-20T16:43:31+02:00</time>
      </trkpt>
      <trkpt lat="44.36772" lon="4.15471">
        <ele>314</ele>
        <time>2023-05-20T16:43:45+02:00</time>
      </trkpt>
      <trkpt lat="44.3677" lon="4.15491">
        <ele>314</ele>
        <time>2023-05-20T16:43:58+02:00</time>
      </trkpt>
      <trkpt lat="44.36768" lon="4.15512">
        <ele>312</ele>
        <time>2023-05-20T16:44:12+02:00</time>
      </trkpt>
    </trkseg>
  </trk>
</gpx>